sensor_id;sensor_type;location;lat;lon;timestamp;pressure;altitude;pressure_sealevel;temperature;humidity
74435;BME280;62867;52.038;29.256;2023-12-20T00:02:04;1013.7;;;8.3;71
74435;BME280;62867;52.038;29.256;2023-12-20T00:06:58;1013.6;;;8.3;71.1
74435;BME280;62867;52.038;29.256;2023-12-20T00:12:18;1013.5;;;8.3;71
74435;BME280;62867;52.038;29.256;2023-12-20T00:16:58;1013.6;;;8.3;71.1
74435;BME280;62867;52.038;29.256;2023-12-20T00:21:36;1013.6;;;8.3;71.3
74435;BME280;62867;52.038;29.256;2023-12-20T00:26:46;1013.6;;;8.3;71.1
74435;BME280;62867;52.038;29.256;2023-12-20T00:31:56;1013.6;;;8.3;71
74435;BME280;62867;52.038;29.256;2023-12-20T00:37:18;1013.6;;;8.3;71
74435;BME280;62867;52.038;29.256;2023-12-20T00:41:28;1013.6;;;8.3;71.2
74435;BME280;62867;52.038;29.256;2023-12-20T00:46:54;1013.6;;;8.3;70.8
74435;BME280;62867;52.038;29.256;2023-12-20T00:52:02;1013.6;;;8.3;70.5
74435;BME280;62867;52.038;29.256;2023-12-20T00:56:44;1013.5;;;8.2;70.4
74435;BME280;62867;52.038;29.256;2023-12-20T01:02:18;1013.5;;;8.2;70.5
74435;BME280;62867;52.038;29.256;2023-12-20T01:06:42;1013.4;;;8.2;70.5
74435;BME280;62867;52.038;29.256;2023-12-20T01:11:48;1013.3;;;8.2;70.5
74435;BME280;62867;52.038;29.256;2023-12-20T01:16:36;1013.3;;;8.2;70.5
74435;BME280;62867;52.038;29.256;2023-12-20T01:21:28;1013.2;;;8.2;70.4
74435;BME280;62867;52.038;29.256;2023-12-20T01:27:18;1013.1;;;8.2;70.4
74435;BME280;62867;52.038;29.256;2023-12-20T01:31:54;1013;;;8.2;70.5
74435;BME280;62867;52.038;29.256;2023-12-20T01:36:28;1012.9;;;8.1;70.4
74435;BME280;62867;52.038;29.256;2023-12-20T01:42:03;1012.7;;;8.1;70.3
74435;BME280;62867;52.038;29.256;2023-12-20T01:46:58;1012.7;;;8.1;69.9
74435;BME280;62867;52.038;29.256;2023-12-20T01:52:06;1012.7;;;8;69.6
74435;BME280;62867;52.038;29.256;2023-12-20T01:56:56;1012.6;;;8;69.6
74435;BME280;62867;52.038;29.256;2023-12-20T02:01:48;1012.6;;;8;69.6
74435;BME280;62867;52.038;29.256;2023-12-20T02:06:46;1012.6;;;8;69.4
74435;BME280;62867;52.038;29.256;2023-12-20T02:11:28;1012.5;;;7.9;69.5
74435;BME280;62867;52.038;29.256;2023-12-20T02:17:18;1012.6;;;8;69.7
74435;BME280;62867;52.038;29.256;2023-12-20T02:21:31;1012.6;;;8;69.8
74435;BME280;62867;52.038;29.256;2023-12-20T02:26:28;1012.6;;;7.9;69.7
74435;BME280;62867;52.038;29.256;2023-12-20T02:31:30;1012.5;;;7.9;69.7
74435;BME280;62867;52.038;29.256;2023-12-20T02:37:18;1012.5;;;7.9;69.7
74435;BME280;62867;52.038;29.256;2023-12-20T02:41:36;1012.5;;;7.9;69.6
74435;BME280;62867;52.038;29.256;2023-12-20T02:46:54;1012.5;;;7.9;69.3
74435;BME280;62867;52.038;29.256;2023-12-20T02:51:56;1012.4;;;7.9;68.9
74435;BME280;62867;52.038;29.256;2023-12-20T02:56:28;1012.3;;;7.8;68.9
74435;BME280;62867;52.038;29.256;2023-12-20T03:02:18;1012.2;;;7.8;68.9
74435;BME280;62867;52.038;29.256;2023-12-20T03:06:31;1012.2;;;7.8;68.9
74435;BME280;62867;52.038;29.256;2023-12-20T03:11:56;1012.2;;;7.7;68.9
74435;BME280;62867;52.038;29.256;2023-12-20T03:16:28;1012.1;;;7.8;69.1
74435;BME280;62867;52.038;29.256;2023-12-20T03:22:18;1012.1;;;7.8;69.2
74435;BME280;62867;52.038;29.256;2023-12-20T03:27:18;1012;;;7.8;69.2
74435;BME280;62867;52.038;29.256;2023-12-20T03:31:48;1012;;;7.8;69
74435;BME280;62867;52.038;29.256;2023-12-20T03:36:50;1012;;;7.7;69
74435;BME280;62867;52.038;29.256;2023-12-20T03:41:28;1012;;;7.7;69
74435;BME280;62867;52.038;29.256;2023-12-20T03:46:36;1011.9;;;7.7;68.9
74435;BME280;62867;52.038;29.256;2023-12-20T03:51:30;1011.9;;;7.7;68.7
74435;BME280;62867;52.038;29.256;2023-12-20T03:56:58;1011.9;;;7.6;68.7
74435;BME280;62867;52.038;29.256;2023-12-20T04:02:21;1011.9;;;7.6;68.6
74435;BME280;62867;52.038;29.256;2023-12-20T04:06:37;1011.8;;;7.6;68.7
74435;BME280;62867;52.038;29.256;2023-12-20T04:12:07;1011.8;;;7.6;68.7
74435;BME280;62867;52.038;29.256;2023-12-20T04:17:19;1011.9;;;7.6;68.8
74435;BME280;62867;52.038;29.256;2023-12-20T04:21:49;1011.9;;;7.6;68.9
74435;BME280;62867;52.038;29.256;2023-12-20T04:26:28;1011.9;;;7.6;68.7
74435;BME280;62867;52.038;29.256;2023-12-20T04:31:28;1012;;;7.6;68.9
74435;BME280;62867;52.038;29.256;2023-12-20T04:36:55;1012;;;7.6;68.8
74435;BME280;62867;52.038;29.256;2023-12-20T04:42:19;1012.1;;;7.6;68.8
74435;BME280;62867;52.038;29.256;2023-12-20T04:46:58;1012;;;7.6;68.8
74435;BME280;62867;52.038;29.256;2023-12-20T04:52:21;1012;;;7.6;68.5
74435;BME280;62867;52.038;29.256;2023-12-20T04:56:55;1012;;;7.6;68.5
74435;BME280;62867;52.038;29.256;2023-12-20T05:02:09;1012;;;7.6;68.3
74435;BME280;62867;52.038;29.256;2023-12-20T05:07:17;1012;;;7.6;68.5
74435;BME280;62867;52.038;29.256;2023-12-20T05:11:29;1012;;;7.6;68.6
74435;BME280;62867;52.038;29.256;2023-12-20T05:16:55;1011.9;;;7.6;68.3
74435;BME280;62867;52.038;29.256;2023-12-20T05:22:17;1011.9;;;7.6;68.6
74435;BME280;62867;52.038;29.256;2023-12-20T05:26:55;1011.8;;;7.6;68.3
74435;BME280;62867;52.038;29.256;2023-12-20T05:32:19;1011.8;;;7.6;68.5
74435;BME280;62867;52.038;29.256;2023-12-20T05:36:31;1011.7;;;7.7;68.4
74435;BME280;62867;52.038;29.256;2023-12-20T05:41:39;1011.7;;;7.7;68.4
74435;BME280;62867;52.038;29.256;2023-12-20T05:46:51;1011.7;;;7.7;68.3
74435;BME280;62867;52.038;29.256;2023-12-20T05:52:07;1011.7;;;7.7;68.1
74435;BME280;62867;52.038;29.256;2023-12-20T05:57:19;1011.8;;;7.7;68
74435;BME280;62867;52.038;29.256;2023-12-20T06:02:09;1011.8;;;7.7;68.1
74435;BME280;62867;52.038;29.256;2023-12-20T06:06:51;1011.8;;;7.7;68.2
74435;BME280;62867;52.038;29.256;2023-12-20T06:11:29;1011.8;;;7.6;68.4
74435;BME280;62867;52.038;29.256;2023-12-20T06:16:47;1011.9;;;7.6;68.5
74435;BME280;62867;52.038;29.256;2023-12-20T06:22:11;1011.9;;;7.6;69
74435;BME280;62867;52.038;29.256;2023-12-20T06:26:59;1012;;;7.7;68.9
74435;BME280;62867;52.038;29.256;2023-12-20T06:32:09;1012;;;7.7;69
74435;BME280;62867;52.038;29.256;2023-12-20T06:36:47;1012;;;7.7;68.9
74435;BME280;62867;52.038;29.256;2023-12-20T06:42:19;1012.1;;;7.7;69.1
74435;BME280;62867;52.038;29.256;2023-12-20T06:47:19;1012.1;;;7.7;69.1
74435;BME280;62867;52.038;29.256;2023-12-20T06:52:19;1012;;;7.7;69
74435;BME280;62867;52.038;29.256;2023-12-20T06:56:37;1012;;;7.7;68.9
74435;BME280;62867;52.038;29.256;2023-12-20T07:01:27;1012;;;7.7;69
74435;BME280;62867;52.038;29.256;2023-12-20T07:07:19;1012;;;7.7;68.9
74435;BME280;62867;52.038;29.256;2023-12-20T07:12:21;1012.1;;;7.7;68.9
74435;BME280;62867;52.038;29.256;2023-12-20T07:17:21;1012.1;;;7.8;69.1
74435;BME280;62867;52.038;29.256;2023-12-20T07:22:11;1012.2;;;7.8;69.2
74435;BME280;62867;52.038;29.256;2023-12-20T07:26:55;1012.2;;;7.8;69.3
74435;BME280;62867;52.038;29.256;2023-12-20T07:32:19;1012.2;;;7.8;69.1
74435;BME280;62867;52.038;29.256;2023-12-20T07:37:19;1012.1;;;7.8;69
74435;BME280;62867;52.038;29.256;2023-12-20T07:41:49;1012.1;;;7.8;69.3
74435;BME280;62867;52.038;29.256;2023-12-20T07:46:35;1012;;;7.8;69.1
74435;BME280;62867;52.038;29.256;2023-12-20T07:51:35;1012;;;7.9;68.7
74435;BME280;62867;52.038;29.256;2023-12-20T07:57:07;1011.9;;;7.8;68.4
74435;BME280;62867;52.038;29.256;2023-12-20T08:02:17;1011.9;;;7.8;68.8
74435;BME280;62867;52.038;29.256;2023-12-20T08:06:59;1011.8;;;7.9;68.7
74435;BME280;62867;52.038;29.256;2023-12-20T08:11:49;1012;;;7.9;68.7
74435;BME280;62867;52.038;29.256;2023-12-20T08:16:29;1012.1;;;7.9;68.7
74435;BME280;62867;52.038;29.256;2023-12-20T08:21:41;1012.1;;;8;68.8
74435;BME280;62867;52.038;29.256;2023-12-20T08:27:19;1012.1;;;8;68.9
74435;BME280;62867;52.038;29.256;2023-12-20T08:32:15;1012.1;;;8;69.1
74435;BME280;62867;52.038;29.256;2023-12-20T08:36:47;1012.1;;;8.1;68.9
74435;BME280;62867;52.038;29.256;2023-12-20T08:41:29;1012.1;;;8.2;69
74435;BME280;62867;52.038;29.256;2023-12-20T08:46:59;1012;;;8.2;68.7
74435;BME280;62867;52.038;29.256;2023-12-20T08:52:17;1012;;;8.3;68.6
74435;BME280;62867;52.038;29.256;2023-12-20T08:56:31;1011.9;;;8.3;68.5
74435;BME280;62867;52.038;29.256;2023-12-20T09:01:49;1012;;;8.3;68.4
74435;BME280;62867;52.038;29.256;2023-12-20T09:07:22;1012;;;8.3;68.4
74435;BME280;62867;52.038;29.256;2023-12-20T09:12:17;1011.8;;;8.3;68.5
74435;BME280;62867;52.038;29.256;2023-12-20T09:17:17;1011.8;;;8.4;68.6
74435;BME280;62867;52.038;29.256;2023-12-20T09:22:19;1011.7;;;8.4;68.8
74435;BME280;62867;52.038;29.256;2023-12-20T09:26:27;1011.6;;;8.4;69
74435;BME280;62867;52.038;29.256;2023-12-20T09:31:55;1011.6;;;8.5;69.1
74435;BME280;62867;52.038;29.256;2023-12-20T09:36:37;1011.4;;;8.6;68.9
74435;BME280;62867;52.038;29.256;2023-12-20T09:42:21;1011.4;;;8.7;68.8
74435;BME280;62867;52.038;29.256;2023-12-20T09:46:57;1011.4;;;8.6;68.6
74435;BME280;62867;52.038;29.256;2023-12-20T09:51:39;1011.4;;;8.6;68.6
74435;BME280;62867;52.038;29.256;2023-12-20T09:56:55;1011.4;;;8.5;68.7
74435;BME280;62867;52.038;29.256;2023-12-20T10:01:57;1011.4;;;8.5;68.5
74435;BME280;62867;52.038;29.256;2023-12-20T10:07:19;1011.4;;;8.4;68.8
74435;BME280;62867;52.038;29.256;2023-12-20T10:11:41;1011.4;;;8.4;68.9
74435;BME280;62867;52.038;29.256;2023-12-20T10:16:29;1011.5;;;8.4;68.5
74435;BME280;62867;52.038;29.256;2023-12-20T10:21:43;1011.6;;;8.4;68.4
74435;BME280;62867;52.038;29.256;2023-12-20T10:26:47;1011.6;;;8.4;68.5
74435;BME280;62867;52.038;29.256;2023-12-20T10:32:22;1011.7;;;8.4;68.4
74435;BME280;62867;52.038;29.256;2023-12-20T10:36:47;1011.6;;;8.4;68.6
74435;BME280;62867;52.038;29.256;2023-12-20T10:42:09;1011.5;;;8.4;68.6
74435;BME280;62867;52.038;29.256;2023-12-20T10:46:45;1011.5;;;8.4;68.7
74435;BME280;62867;52.038;29.256;2023-12-20T10:51:41;1011.5;;;8.4;68.8
74435;BME280;62867;52.038;29.256;2023-12-20T10:57:19;1011.5;;;8.4;68.9
74435;BME280;62867;52.038;29.256;2023-12-20T11:01:37;1011.4;;;8.4;69
74435;BME280;62867;52.038;29.256;2023-12-20T11:06:32;1011.3;;;8.4;68.9
74435;BME280;62867;52.038;29.256;2023-12-20T11:11:29;1011.4;;;8.5;68.8
74435;BME280;62867;52.038;29.256;2023-12-20T11:17:19;1011.4;;;8.5;68.6
74435;BME280;62867;52.038;29.256;2023-12-20T11:21:57;1011.3;;;8.4;68.5
74435;BME280;62867;52.038;29.256;2023-12-20T11:26:47;1011.3;;;8.4;68.7
74435;BME280;62867;52.038;29.256;2023-12-20T11:32:27;1011.2;;;8.4;68.7
74435;BME280;62867;52.038;29.256;2023-12-20T11:36:32;1011.1;;;8.4;68.7
74435;BME280;62867;52.038;29.256;2023-12-20T11:41:37;1011.1;;;8.4;68.9
74435;BME280;62867;52.038;29.256;2023-12-20T11:47:01;1011;;;8.4;69.1
74435;BME280;62867;52.038;29.256;2023-12-20T11:51:29;1010.9;;;8.4;69
74435;BME280;62867;52.038;29.256;2023-12-20T11:56:29;1010.8;;;8.4;68.9
74435;BME280;62867;52.038;29.256;2023-12-20T12:01:35;1010.7;;;8.2;69.4
74435;BME280;62867;52.038;29.256;2023-12-20T12:06:29;1010.8;;;8.2;69.6
74435;BME280;62867;52.038;29.256;2023-12-20T12:12:19;1010.8;;;8.3;69.3
74435;BME280;62867;52.038;29.256;2023-12-20T12:17:19;1010.8;;;8.3;69.2
74435;BME280;62867;52.038;29.256;2023-12-20T12:22:09;1010.7;;;8.3;69.2
74435;BME280;62867;52.038;29.256;2023-12-20T12:26:56;1010.7;;;8.3;69.1
74435;BME280;62867;52.038;29.256;2023-12-20T12:31:51;1010.7;;;8.3;69
74435;BME280;62867;52.038;29.256;2023-12-20T12:37:03;1010.5;;;8.2;69.1
74435;BME280;62867;52.038;29.256;2023-12-20T12:41:45;1010.4;;;8.2;69.2
74435;BME280;62867;52.038;29.256;2023-12-20T12:47:21;1010.3;;;8.2;69.1
74435;BME280;62867;52.038;29.256;2023-12-20T12:51:45;1010.3;;;8.2;69.3
74435;BME280;62867;52.038;29.256;2023-12-20T12:56:43;1010.2;;;8.2;69.4
74435;BME280;62867;52.038;29.256;2023-12-20T13:02:19;1010.2;;;8.2;69.6
74435;BME280;62867;52.038;29.256;2023-12-20T13:07:21;1010.3;;;8.2;69.6
74435;BME280;62867;52.038;29.256;2023-12-20T13:12:09;1010.3;;;8.2;69.5
74435;BME280;62867;52.038;29.256;2023-12-20T13:17:19;1010.2;;;8.2;69.3
74435;BME280;62867;52.038;29.256;2023-12-20T13:21:37;1010.2;;;8.1;69.4
74435;BME280;62867;52.038;29.256;2023-12-20T13:26:43;1010.2;;;8.1;69.1
74435;BME280;62867;52.038;29.256;2023-12-20T13:31:35;1010.2;;;8;69.2
74435;BME280;62867;52.038;29.256;2023-12-20T13:36:29;1010.2;;;8;69.3
74435;BME280;62867;52.038;29.256;2023-12-20T13:41:29;1010.2;;;8;69.3
74435;BME280;62867;52.038;29.256;2023-12-20T13:46:45;1010.2;;;8;69.3
74435;BME280;62867;52.038;29.256;2023-12-20T13:52:19;1010.2;;;8;69.4
74435;BME280;62867;52.038;29.256;2023-12-20T13:57:21;1010.2;;;8;69.5
74435;BME280;62867;52.038;29.256;2023-12-20T14:02:11;1010.2;;;8;69.5
74435;BME280;62867;52.038;29.256;2023-12-20T14:07:19;1010.2;;;8;69.5
74435;BME280;62867;52.038;29.256;2023-12-20T14:11:49;1010.1;;;8;69.7
74435;BME280;62867;52.038;29.256;2023-12-20T14:17:09;1010.1;;;8;69.8
74435;BME280;62867;52.038;29.256;2023-12-20T14:21:29;1009.9;;;8;69.6
74435;BME280;62867;52.038;29.256;2023-12-20T14:26:49;1009.9;;;7.9;69.4
74435;BME280;62867;52.038;29.256;2023-12-20T14:32:13;1009.9;;;7.9;69.4
74435;BME280;62867;52.038;29.256;2023-12-20T14:37:17;1009.8;;;7.9;69.5
74435;BME280;62867;52.038;29.256;2023-12-20T14:42:19;1009.9;;;7.9;69.4
74435;BME280;62867;52.038;29.256;2023-12-20T14:47:05;1009.8;;;7.9;69.7
74435;BME280;62867;52.038;29.256;2023-12-20T14:52:09;1009.9;;;8;69.7
74435;BME280;62867;52.038;29.256;2023-12-20T14:57:21;1009.8;;;8;69.9
74435;BME280;62867;52.038;29.256;2023-12-20T15:01:59;1009.8;;;8;69.7
74435;BME280;62867;52.038;29.256;2023-12-20T15:07:11;1009.7;;;8;69.7
74435;BME280;62867;52.038;29.256;2023-12-20T15:12:09;1009.6;;;8;69.7
74435;BME280;62867;52.038;29.256;2023-12-20T15:16:29;1009.5;;;8;69.8
74435;BME280;62867;52.038;29.256;2023-12-20T15:21:29;1009.5;;;8;69.6
74435;BME280;62867;52.038;29.256;2023-12-20T15:26:38;1009.5;;;7.9;69.6
74435;BME280;62867;52.038;29.256;2023-12-20T15:32:19;1009.5;;;7.9;69.5
74435;BME280;62867;52.038;29.256;2023-12-20T15:37:17;1009.5;;;7.9;69.5
74435;BME280;62867;52.038;29.256;2023-12-20T15:42:09;1009.5;;;7.9;69.6
74435;BME280;62867;52.038;29.256;2023-12-20T15:46:57;1009.5;;;7.9;69.8
74435;BME280;62867;52.038;29.256;2023-12-20T15:51:55;1009.4;;;7.9;69.9
74435;BME280;62867;52.038;29.256;2023-12-20T15:56:55;1009.4;;;7.9;70
74435;BME280;62867;52.038;29.256;2023-12-20T16:01:33;1009.3;;;7.9;70.1
74435;BME280;62867;52.038;29.256;2023-12-20T16:06:45;1009.3;;;7.9;70.1
74435;BME280;62867;52.038;29.256;2023-12-20T16:11:55;1009.2;;;7.9;70.1
74435;BME280;62867;52.038;29.256;2023-12-20T16:16:47;1009.1;;;7.9;70
74435;BME280;62867;52.038;29.256;2023-12-20T16:22:05;1009.1;;;7.8;70.1
74435;BME280;62867;52.038;29.256;2023-12-20T16:27:05;1009.1;;;7.8;70
74435;BME280;62867;52.038;29.256;2023-12-20T16:32:17;1009.1;;;7.8;70
74435;BME280;62867;52.038;29.256;2023-12-20T16:37:21;1009;;;7.8;69.9
74435;BME280;62867;52.038;29.256;2023-12-20T16:41:35;1009;;;7.8;70.1
74435;BME280;62867;52.038;29.256;2023-12-20T16:47:03;1009.1;;;7.8;70
74435;BME280;62867;52.038;29.256;2023-12-20T16:52:19;1009;;;7.8;70.1
74435;BME280;62867;52.038;29.256;2023-12-20T16:56:27;1008.9;;;7.9;70
74435;BME280;62867;52.038;29.256;2023-12-20T17:01:29;1008.9;;;7.9;70.2
74435;BME280;62867;52.038;29.256;2023-12-20T17:06:35;1008.9;;;7.8;70.1
74435;BME280;62867;52.038;29.256;2023-12-20T17:12:17;1008.8;;;7.8;70.2
74435;BME280;62867;52.038;29.256;2023-12-20T17:16:57;1008.9;;;7.9;70.1
74435;BME280;62867;52.038;29.256;2023-12-20T17:21:59;1008.8;;;7.8;69.8
74435;BME280;62867;52.038;29.256;2023-12-20T17:27:17;1008.8;;;7.8;69.6
74435;BME280;62867;52.038;29.256;2023-12-20T17:31:49;1008.9;;;7.7;69.5
74435;BME280;62867;52.038;29.256;2023-12-20T17:37:19;1008.8;;;7.7;69.7
74435;BME280;62867;52.038;29.256;2023-12-20T17:41:29;1008.7;;;7.7;69.7
74435;BME280;62867;52.038;29.256;2023-12-20T17:46:29;1008.6;;;7.7;69.8
74435;BME280;62867;52.038;29.256;2023-12-20T17:52:05;1008.5;;;7.7;69.9
74435;BME280;62867;52.038;29.256;2023-12-20T17:57:01;1008.4;;;7.6;69.8
74435;BME280;62867;52.038;29.256;2023-12-20T18:01:29;1008.4;;;7.6;70
74435;BME280;62867;52.038;29.256;2023-12-20T18:06:55;1008.3;;;7.5;70.1
74435;BME280;62867;52.038;29.256;2023-12-20T18:12:17;1008.1;;;7.5;70
74435;BME280;62867;52.038;29.256;2023-12-20T18:17:21;1008.1;;;7.5;70.2
74435;BME280;62867;52.038;29.256;2023-12-20T18:21:37;1008.1;;;7.5;69.8
74435;BME280;62867;52.038;29.256;2023-12-20T18:27:21;1008.2;;;7.4;69.7
74435;BME280;62867;52.038;29.256;2023-12-20T18:31:27;1008.2;;;7.4;69.7
74435;BME280;62867;52.038;29.256;2023-12-20T18:36:29;1008.3;;;7.3;69.8
74435;BME280;62867;52.038;29.256;2023-12-20T18:42:05;1008.2;;;7.3;70
74435;BME280;62867;52.038;29.256;2023-12-20T18:46:29;1008.3;;;7.3;70.1
74435;BME280;62867;52.038;29.256;2023-12-20T18:51:55;1008.2;;;7.3;70.2
74435;BME280;62867;52.038;29.256;2023-12-20T18:57:17;1008.2;;;7.3;70.2
74435;BME280;62867;52.038;29.256;2023-12-20T19:02:21;1008;;;7.3;70.2
74435;BME280;62867;52.038;29.256;2023-12-20T19:07:19;1008;;;7.4;70.2
74435;BME280;62867;52.038;29.256;2023-12-20T19:11:47;1008;;;7.4;70.2
74435;BME280;62867;52.038;29.256;2023-12-20T19:17:17;1007.9;;;7.4;70
74435;BME280;62867;52.038;29.256;2023-12-20T19:21:27;1007.9;;;7.4;70
74435;BME280;62867;52.038;29.256;2023-12-20T19:26:43;1007.8;;;7.4;69.7
74435;BME280;62867;52.038;29.256;2023-12-20T19:31:43;1007.7;;;7.4;69.5
74435;BME280;62867;52.038;29.256;2023-12-20T19:36:45;1007.6;;;7.4;69.7
74435;BME280;62867;52.038;29.256;2023-12-20T19:41:47;1007.5;;;7.4;69.8
74435;BME280;62867;52.038;29.256;2023-12-20T19:47:09;1007.7;;;7.4;69.7
74435;BME280;62867;52.038;29.256;2023-12-20T19:52:17;1007.7;;;7.4;69.9
74435;BME280;62867;52.038;29.256;2023-12-20T19:57:19;1007.8;;;7.4;69.8
74435;BME280;62867;52.038;29.256;2023-12-20T20:02:11;1007.9;;;7.4;70
74435;BME280;62867;52.038;29.256;2023-12-20T20:07:21;1007.8;;;7.4;69.9
74435;BME280;62867;52.038;29.256;2023-12-20T20:11:35;1007.8;;;7.4;69.9
74435;BME280;62867;52.038;29.256;2023-12-20T20:17:09;1007.8;;;7.3;69.8
74435;BME280;62867;52.038;29.256;2023-12-20T20:22:05;1007.8;;;7.3;69.9
74435;BME280;62867;52.038;29.256;2023-12-20T20:26:37;1007.8;;;7.2;69.7
74435;BME280;62867;52.038;29.256;2023-12-20T20:32:05;1007.8;;;7.2;69.6
74435;BME280;62867;52.038;29.256;2023-12-20T20:36:55;1007.8;;;7.1;69.7
74435;BME280;62867;52.038;29.256;2023-12-20T20:42:19;1007.8;;;7.1;69.7
74435;BME280;62867;52.038;29.256;2023-12-20T20:47:17;1007.9;;;7;69.4
74435;BME280;62867;52.038;29.256;2023-12-20T20:51:53;1007.9;;;6.9;69.4
74435;BME280;62867;52.038;29.256;2023-12-20T20:56:35;1008;;;6.9;69.4
74435;BME280;62867;52.038;29.256;2023-12-20T21:01:29;1008.1;;;6.8;69.6
74435;BME280;62867;52.038;29.256;2023-12-20T21:06:49;1008.1;;;6.8;69.4
74435;BME280;62867;52.038;29.256;2023-12-20T21:12:21;1008;;;6.8;69.3
74435;BME280;62867;52.038;29.256;2023-12-20T21:16:55;1008;;;6.7;69.1
74435;BME280;62867;52.038;29.256;2023-12-20T21:22:03;1008;;;6.7;69.1
74435;BME280;62867;52.038;29.256;2023-12-20T21:27:05;1008.1;;;6.6;69.2
74435;BME280;62867;52.038;29.256;2023-12-20T21:31:37;1008.1;;;6.6;69.3
74435;BME280;62867;52.038;29.256;2023-12-20T21:37:19;1008.1;;;6.6;69.4
74435;BME280;62867;52.038;29.256;2023-12-20T21:41:39;1008.1;;;6.6;69.6
74435;BME280;62867;52.038;29.256;2023-12-20T21:46:29;1008;;;6.5;69.7
74435;BME280;62867;52.038;29.256;2023-12-20T21:51:29;1008;;;6.5;69.8
74435;BME280;62867;52.038;29.256;2023-12-20T21:56:29;1008;;;6.5;69.7
74435;BME280;62867;52.038;29.256;2023-12-20T22:02:03;1008.1;;;6.5;69.7
74435;BME280;62867;52.038;29.256;2023-12-20T22:06:29;1008.1;;;6.5;69.5
74435;BME280;62867;52.038;29.256;2023-12-20T22:11:29;1007.9;;;6.4;69.6
74435;BME280;62867;52.038;29.256;2023-12-20T22:17:03;1007.9;;;6.4;69.5
74435;BME280;62867;52.038;29.256;2023-12-20T22:21:29;1007.9;;;6.4;69.4
74435;BME280;62867;52.038;29.256;2023-12-20T22:27:19;1008;;;6.3;69.1
74435;BME280;62867;52.038;29.256;2023-12-20T22:32:01;1008;;;6.3;69.4
74435;BME280;62867;52.038;29.256;2023-12-20T22:36:37;1008.1;;;6.3;69.4
74435;BME280;62867;52.038;29.256;2023-12-20T22:41:29;1008.1;;;6.2;69.4
74435;BME280;62867;52.038;29.256;2023-12-20T22:47:09;1008.1;;;6.2;69.5
74435;BME280;62867;52.038;29.256;2023-12-20T22:51:53;1008.2;;;6.2;69.8
74435;BME280;62867;52.038;29.256;2023-12-20T22:56:29;1008.2;;;6.2;69.5
74435;BME280;62867;52.038;29.256;2023-12-20T23:01:53;1008.3;;;6.2;69.6
74435;BME280;62867;52.038;29.256;2023-12-20T23:07:03;1008.2;;;6.1;69.7
74435;BME280;62867;52.038;29.256;2023-12-20T23:11:55;1008.2;;;6.1;69.7
74435;BME280;62867;52.038;29.256;2023-12-20T23:17:21;1008.3;;;6;69.6
74435;BME280;62867;52.038;29.256;2023-12-20T23:21:53;1008.3;;;6;69.7
74435;BME280;62867;52.038;29.256;2023-12-20T23:26:43;1008.3;;;6;69.8
74435;BME280;62867;52.038;29.256;2023-12-20T23:32:01;1008.2;;;6;69.8
74435;BME280;62867;52.038;29.256;2023-12-20T23:36:29;1008.3;;;6;70
74435;BME280;62867;52.038;29.256;2023-12-20T23:42:19;1008.4;;;6.1;70.1
74435;BME280;62867;52.038;29.256;2023-12-20T23:46:51;1008.4;;;6.1;70.1
74435;BME280;62867;52.038;29.256;2023-12-20T23:51:53;1008.3;;;6.1;70.2
74435;BME280;62867;52.038;29.256;2023-12-20T23:56:57;1008.2;;;6.1;70.1
